Time;durP1;ratioP1;P1;durP2;ratioP2;P2;SDS_P1;SDS_P2;PMS_P1;PMS_P2;Temp;Humidity;BMP_temperature;BMP_pressure;BME280_temperature;BME280_humidity;BME280_pressure;Samples;Min_cycle;Max_cycle;Signal;HPM_P1;HPM_P2
2022/09/04 00:01:30;;;;;;;;;;;15.50;69.60;;;;;;6125068;23;19927;-68
2022/09/04 00:03:59;;;;;;;;;;;15.50;66.40;;;;;;6124821;23;20329;-68
2022/09/04 00:06:28;;;;;;;;;;;15.50;67.20;;;;;;6124870;23;19984;-69
2022/09/04 00:37:39;;;;;;;;;;;15.90;65.40;;;;;;6118299;23;19936;-68
2022/09/04 00:40:08;;;;;;;;;;;16.00;68.30;;;;;;6099445;23;19913;-70
2022/09/04 00:42:47;;;;;;;;;;;16.00;67.50;;;;;;6123976;23;19953;-70
2022/09/04 00:45:16;;;;;;;;;;;15.90;68.90;;;;;;6125196;23;20423;-70
2022/09/04 00:48:01;;;;;;;;;;;15.70;68.50;;;;;;6124430;23;19992;-69
2022/09/04 00:50:43;;;;;;;;;;;15.70;67.90;;;;;;6125050;23;20240;-69
2022/09/04 00:53:12;;;;;;;;;;;15.80;67.60;;;;;;6124622;23;20004;-70
2022/09/04 00:55:54;;;;;;;;;;;16.00;66.80;;;;;;6124480;23;20240;-69
2022/09/04 00:58:21;;;;;;;;;;;16.00;65.60;;;;;;6124656;23;19912;-70
2022/09/04 01:00:47;;;;;;;;;;;15.90;65.40;;;;;;6124556;23;19961;-69
2022/09/04 01:03:20;;;;;;;;;;;15.80;64.70;;;;;;6098907;23;19905;-70
2022/09/04 01:05:56;;;;;;;;;;;15.70;65.10;;;;;;6124927;23;19909;-71
2022/09/04 01:08:27;;;;;;;;;;;15.80;64.70;;;;;;6121806;23;19909;-69
2022/09/04 01:11:14;;;;;;;;;;;15.80;62.80;;;;;;6098021;23;19950;-70
2022/09/04 01:13:59;;;;;;;;;;;16.00;64.70;;;;;;6124765;23;19981;-70
2022/09/04 01:16:33;;;;;;;;;;;16.10;64.40;;;;;;6099920;23;19947;-69
2022/09/04 01:19:38;;;;;;;;;;;16.10;64.40;;;;;;6098312;23;20288;-69
2022/09/04 01:22:13;;;;;;;;;;;16.20;64.80;;;;;;6032273;23;19906;-70
2022/09/04 01:24:58;;;;;;;;;;;16.40;66.10;;;;;;6035015;23;19922;-69
2022/09/04 01:27:44;;;;;;;;;;;16.20;64.90;;;;;;6091422;23;20325;-70
2022/09/04 01:30:17;;;;;;;;;;;16.00;62.50;;;;;;6124888;23;19917;-70
2022/09/04 01:32:50;;;;;;;;;;;16.00;63.20;;;;;;6124668;23;20244;-70
2022/09/04 01:35:19;;;;;;;;;;;16.10;61.40;;;;;;6124752;23;19905;-70
2022/09/04 01:38:04;;;;;;;;;;;16.20;60.70;;;;;;6121584;23;19928;-70
2022/09/04 01:40:36;;;;;;;;;;;16.30;59.00;;;;;;6123850;23;20309;-70
2022/09/04 01:43:05;;;;;;;;;;;16.40;56.10;;;;;;6123744;23;19904;-70
2022/09/04 01:45:51;;;;;;;;;;;16.50;56.10;;;;;;6123884;23;20335;-70
2022/09/04 01:48:20;;;;;;;;;;;16.40;56.50;;;;;;6124325;23;19907;-70
2022/09/04 01:50:47;;;;;;;;;;;16.40;55.40;;;;;;6098569;23;20229;-69
2022/09/04 01:53:39;;;;;;;;;;;16.30;56.70;;;;;;6124529;23;19961;-69
2022/09/04 01:56:12;;;;;;;;;;;16.40;56.80;;;;;;6119534;23;19909;-71
2022/09/04 01:58:54;;;;;;;;;;;16.50;58.60;;;;;;6124372;23;19909;-70
2022/09/04 02:01:24;;;;;;;;;;;16.40;58.20;;;;;;6124756;23;19988;-71
2022/09/04 02:04:26;;;;;;;;;;;16.30;57.80;;;;;;6124068;23;19936;-70
2022/09/04 02:06:55;;;;;;;;;;;16.40;54.90;;;;;;6029416;23;19906;-70
2022/09/04 02:09:30;;;;;;;;;;;16.40;58.00;;;;;;6073441;23;19913;-71
2022/09/04 02:12:08;;;;;;;;;;;16.40;57.00;;;;;;6098521;23;19964;-71
2022/09/04 02:14:46;;;;;;;;;;;16.50;58.20;;;;;;6097439;23;19905;-69
2022/09/04 02:17:17;;;;;;;;;;;16.60;57.00;;;;;;6097280;23;19905;-69
2022/09/04 02:19:47;;;;;;;;;;;16.50;61.30;;;;;;6123364;23;19929;-69
2022/09/04 02:22:18;;;;;;;;;;;16.50;65.10;;;;;;6124528;23;19912;-70
2022/09/04 02:24:57;;;;;;;;;;;16.50;65.60;;;;;;6098354;23;19909;-69
2022/09/04 02:27:27;;;;;;;;;;;16.30;65.50;;;;;;6098813;23;20004;-69
2022/09/04 02:30:09;;;;;;;;;;;16.30;66.50;;;;;;6124385;23;20225;-69
2022/09/04 02:32:41;;;;;;;;;;;16.30;65.70;;;;;;6099334;23;19909;-69
2022/09/04 02:35:08;;;;;;;;;;;16.20;66.10;;;;;;6099341;23;19909;-70
2022/09/04 02:37:54;;;;;;;;;;;16.30;65.60;;;;;;6121033;23;19936;-69
2022/09/04 02:40:24;;;;;;;;;;;16.20;66.50;;;;;;6098793;23;19932;-69
2022/09/04 02:43:03;;;;;;;;;;;16.10;66.30;;;;;;6124006;23;20320;-69
2022/09/04 02:45:38;;;;;;;;;;;16.20;67.20;;;;;;6124843;23;19913;-69
2022/09/04 02:48:17;;;;;;;;;;;16.20;65.50;;;;;;6124841;23;19902;-69
2022/09/04 02:51:03;;;;;;;;;;;16.40;65.10;;;;;;6124283;23;19968;-70
2022/09/04 02:53:30;;;;;;;;;;;16.50;63.50;;;;;;6123007;23;19909;-69
2022/09/04 02:56:09;;;;;;;;;;;16.40;63.00;;;;;;6124203;23;19905;-71
2022/09/04 02:58:38;;;;;;;;;;;16.50;63.60;;;;;;6098615;23;19976;-69
2022/09/04 03:01:34;;;;;;;;;;;16.60;65.00;;;;;;6099053;23;19915;-69
2022/09/04 03:04:12;;;;;;;;;;;16.70;63.90;;;;;;6099579;23;20240;-70
2022/09/04 03:06:39;;;;;;;;;;;16.50;66.10;;;;;;6099017;23;19912;-71
2022/09/04 03:09:08;;;;;;;;;;;16.30;67.70;;;;;;6122156;23;19920;-70
2022/09/04 03:11:34;;;;;;;;;;;16.20;66.70;;;;;;6098266;23;19984;-69
2022/09/04 03:14:01;;;;;;;;;;;16.10;66.40;;;;;;6124284;23;19911;-71
2022/09/04 03:16:44;;;;;;;;;;;16.00;66.70;;;;;;6123428;23;19932;-69
2022/09/04 03:19:20;;;;;;;;;;;16.20;67.00;;;;;;6098731;23;20033;-69
2022/09/04 03:21:53;;;;;;;;;;;16.20;66.30;;;;;;6124510;23;19916;-70
2022/09/04 03:24:25;;;;;;;;;;;16.20;66.80;;;;;;6124592;23;19984;-69
2022/09/04 03:26:56;;;;;;;;;;;16.20;66.60;;;;;;6124293;23;19940;-69
2022/09/04 03:29:41;;;;;;;;;;;16.10;67.50;;;;;;6098442;23;19920;-70
2022/09/04 03:32:10;;;;;;;;;;;16.10;66.90;;;;;;6124863;23;19987;-69
2022/09/04 03:34:37;;;;;;;;;;;16.10;67.20;;;;;;6098747;23;20241;-69
2022/09/04 03:37:13;;;;;;;;;;;16.00;67.00;;;;;;6124584;23;19909;-70
2022/09/04 03:39:46;;;;;;;;;;;16.00;67.20;;;;;;6121505;23;19908;-69
2022/09/04 03:42:24;;;;;;;;;;;16.00;66.40;;;;;;6126540;23;19905;-70
2022/09/04 03:45:23;;;;;;;;;;;16.00;67.30;;;;;;6125936;23;20277;-69
2022/09/04 03:47:54;;;;;;;;;;;16.20;66.60;;;;;;6061440;23;20414;-69
2022/09/04 03:50:33;;;;;;;;;;;16.20;66.10;;;;;;6100361;23;19913;-70
2022/09/04 03:53:00;;;;;;;;;;;16.20;66.50;;;;;;6126286;23;19984;-70
2022/09/04 03:55:45;;;;;;;;;;;16.20;65.60;;;;;;6125984;23;19905;-70
2022/09/04 03:58:27;;;;;;;;;;;16.20;66.30;;;;;;6126444;23;19905;-69
2022/09/04 04:00:57;;;;;;;;;;;16.20;67.40;;;;;;6100535;23;19912;-70
2022/09/04 04:03:41;;;;;;;;;;;16.20;67.30;;;;;;6126100;23;19905;-69
2022/09/04 04:06:28;;;;;;;;;;;16.20;66.20;;;;;;6126037;23;19960;-70
2022/09/04 04:09:15;;;;;;;;;;;16.20;65.60;;;;;;6097117;23;19909;-70
2022/09/04 04:11:44;;;;;;;;;;;15.80;71.90;;;;;;6125589;23;19947;-70
2022/09/04 04:14:17;;;;;;;;;;;15.50;76.80;;;;;;6126098;23;19905;-69
2022/09/04 04:17:01;;;;;;;;;;;15.00;84.90;;;;;;6125766;23;19909;-69
2022/09/04 04:19:43;;;;;;;;;;;14.30;87.80;;;;;;6125744;23;19928;-68
2022/09/04 04:22:13;;;;;;;;;;;14.00;89.00;;;;;;6126300;23;19916;-70
2022/09/04 04:24:46;;;;;;;;;;;14.00;90.70;;;;;;6125652;23;19905;-69
2022/09/04 04:27:24;;;;;;;;;;;14.00;91.00;;;;;;6126247;23;19909;-68
2022/09/04 04:29:56;;;;;;;;;;;13.70;88.80;;;;;;6125455;23;20252;-69
2022/09/04 04:32:24;;;;;;;;;;;13.50;90.40;;;;;;6125692;23;19983;-69
2022/09/04 04:34:54;;;;;;;;;;;13.30;90.90;;;;;;6125291;23;19909;-69
2022/09/04 04:37:39;;;;;;;;;;;13.30;91.70;;;;;;6125373;23;19917;-69
2022/09/04 04:40:05;;;;;;;;;;;13.20;91.40;;;;;;6123036;23;19912;-68
2022/09/04 04:42:39;;;;;;;;;;;13.20;92.10;;;;;;6125801;23;19913;-68
2022/09/04 04:48:13;;;;;;;;;;;13.00;92.30;;;;;;6125475;23;20440;-68
2022/09/04 04:50:52;;;;;;;;;;;13.10;93.20;;;;;;6099711;23;19920;-68
2022/09/04 04:53:19;;;;;;;;;;;13.10;93.50;;;;;;6099653;23;19912;-68
2022/09/04 04:55:48;;;;;;;;;;;13.20;93.70;;;;;;6125654;23;19905;-68
2022/09/04 04:58:18;;;;;;;;;;;13.20;94.00;;;;;;6125602;23;19916;-68
2022/09/04 05:00:46;;;;;;;;;;;13.10;93.60;;;;;;6099894;23;20747;-68
2022/09/04 05:03:17;;;;;;;;;;;13.20;93.80;;;;;;6100059;23;19909;-68
2022/09/04 05:05:45;;;;;;;;;;;13.30;94.00;;;;;;6099839;23;19915;-68
2022/09/04 05:08:18;;;;;;;;;;;13.30;94.10;;;;;;6122626;23;19959;-68
2022/09/04 05:10:54;;;;;;;;;;;13.20;93.30;;;;;;6099141;23;19988;-68
2022/09/04 05:13:37;;;;;;;;;;;13.20;92.50;;;;;;6099532;23;19909;-67
2022/09/04 05:16:21;;;;;;;;;;;13.20;92.20;;;;;;6125576;23;19905;-68
2022/09/04 05:19:10;;;;;;;;;;;13.30;92.20;;;;;;6125041;23;19905;-68
2022/09/04 05:21:39;;;;;;;;;;;13.20;92.40;;;;;;6098965;23;19912;-68
2022/09/04 05:24:11;;;;;;;;;;;13.30;92.40;;;;;;6125089;23;19905;-68
2022/09/04 05:26:50;;;;;;;;;;;13.30;92.60;;;;;;6125209;23;20225;-68
2022/09/04 05:29:17;;;;;;;;;;;13.30;93.00;;;;;;6099343;23;19987;-68
2022/09/04 05:31:47;;;;;;;;;;;13.30;93.20;;;;;;6125139;23;20325;-68
2022/09/04 05:34:32;;;;;;;;;;;13.40;93.50;;;;;;6099047;23;19912;-68
2022/09/04 05:37:06;;;;;;;;;;;13.40;93.10;;;;;;6125250;23;19983;-68
2022/09/04 05:39:41;;;;;;;;;;;13.40;93.10;;;;;;6096545;23;19916;-68
2022/09/04 05:42:26;;;;;;;;;;;13.50;93.20;;;;;;6125055;23;19905;-68
2022/09/04 05:45:11;;;;;;;;;;;13.60;93.00;;;;;;6125139;23;20030;-68
2022/09/04 05:48:01;;;;;;;;;;;13.50;92.00;;;;;;6124799;23;19905;-68
2022/09/04 05:50:43;;;;;;;;;;;13.40;86.40;;;;;;6098646;23;19913;-68
2022/09/04 05:53:27;;;;;;;;;;;13.60;84.80;;;;;;6125171;23;19912;-68
2022/09/04 05:55:57;;;;;;;;;;;13.80;81.70;;;;;;6125097;23;19904;-68
2022/09/04 05:58:24;;;;;;;;;;;14.10;80.00;;;;;;6124464;23;19987;-68
2022/09/04 06:01:01;;;;;;;;;;;14.20;79.80;;;;;;6124474;23;19911;-68
2022/09/04 06:03:32;;;;;;;;;;;14.30;77.20;;;;;;6099236;23;19912;-68
2022/09/04 06:05:58;;;;;;;;;;;14.30;76.40;;;;;;6075223;23;20346;-68
2022/09/04 06:08:31;;;;;;;;;;;14.30;77.00;;;;;;6123097;23;19921;-68
2022/09/04 06:11:07;;;;;;;;;;;14.40;76.00;;;;;;6124942;23;20339;-68
2022/09/04 06:13:49;;;;;;;;;;;14.50;73.20;;;;;;6124572;23;19909;-67
2022/09/04 06:16:24;;;;;;;;;;;14.50;74.10;;;;;;6124278;23;19905;-68
2022/09/04 06:18:56;;;;;;;;;;;14.50;74.50;;;;;;6124916;23;19909;-67
2022/09/04 06:21:22;;;;;;;;;;;14.60;73.30;;;;;;6098902;23;19959;-68
2022/09/04 06:23:59;;;;;;;;;;;14.70;72.70;;;;;;6124810;23;19905;-68
2022/09/04 06:26:43;;;;;;;;;;;14.70;71.80;;;;;;6099042;23;19979;-67
2022/09/04 06:29:13;;;;;;;;;;;14.70;74.30;;;;;;6124877;23;20363;-68
2022/09/04 06:31:49;;;;;;;;;;;14.60;74.70;;;;;;6124963;23;19905;-68
2022/09/04 06:34:16;;;;;;;;;;;14.50;74.80;;;;;;6125013;23;19905;-68
2022/09/04 06:36:49;;;;;;;;;;;14.60;76.40;;;;;;6124376;23;19987;-68
2022/09/04 06:39:34;;;;;;;;;;;14.70;78.30;;;;;;6122064;23;19916;-68
2022/09/04 06:42:16;;;;;;;;;;;14.70;80.20;;;;;;6124564;23;19909;-68
2022/09/04 06:44:46;;;;;;;;;;;14.60;81.50;;;;;;6124334;23;19917;-67
2022/09/04 06:47:31;;;;;;;;;;;14.50;80.50;;;;;;6099130;23;19905;-68
2022/09/04 06:50:21;;;;;;;;;;;14.50;80.90;;;;;;6124604;23;20003;-69
2022/09/04 06:52:54;;;;;;;;;;;14.50;81.60;;;;;;6107454;23;19912;-68
2022/09/04 06:55:44;;;;;;;;;;;14.50;81.10;;;;;;6121870;23;19983;-73
2022/09/04 06:58:36;;;;;;;;;;;14.50;80.40;;;;;;6069993;23;19936;-69
2022/09/04 07:01:14;;;;;;;;;;;14.50;80.60;;;;;;6099170;23;19905;-70
2022/09/04 07:04:04;;;;;;;;;;;14.50;80.50;;;;;;6123471;23;19955;-70
2022/09/04 07:06:49;;;;;;;;;;;14.50;80.40;;;;;;6107681;23;19909;-70
2022/09/04 07:09:21;;;;;;;;;;;14.40;81.40;;;;;;6122947;23;19916;-70
2022/09/04 07:11:51;;;;;;;;;;;14.30;82.80;;;;;;6125070;23;19909;-70
2022/09/04 07:14:36;;;;;;;;;;;14.10;82.20;;;;;;6123237;23;19984;-70
2022/09/04 07:17:07;;;;;;;;;;;13.90;82.60;;;;;;6124522;23;19959;-70
2022/09/04 07:19:52;;;;;;;;;;;13.80;81.70;;;;;;6126133;23;19933;-70
2022/09/04 07:22:19;;;;;;;;;;;13.80;82.70;;;;;;6126958;23;20228;-70
2022/09/04 07:24:48;;;;;;;;;;;13.80;82.40;;;;;;6125156;23;20428;-70
2022/09/04 07:27:24;;;;;;;;;;;13.70;82.50;;;;;;6126024;23;19917;-70
2022/09/04 07:29:58;;;;;;;;;;;13.70;81.20;;;;;;6125167;23;20248;-70
2022/09/04 07:32:34;;;;;;;;;;;13.80;81.10;;;;;;6100928;23;20355;-70
2022/09/04 07:35:10;;;;;;;;;;;13.80;81.50;;;;;;6126864;23;20328;-70
2022/09/04 07:37:59;;;;;;;;;;;13.80;82.00;;;;;;6125410;23;19917;-70
2022/09/04 07:40:34;;;;;;;;;;;13.80;81.90;;;;;;6124742;23;20464;-70
2022/09/04 07:43:09;;;;;;;;;;;13.80;81.00;;;;;;6100334;23;20039;-70
2022/09/04 07:45:47;;;;;;;;;;;13.80;81.10;;;;;;6126575;23;19988;-70
2022/09/04 07:48:34;;;;;;;;;;;13.80;81.90;;;;;;6102360;23;19957;-70
2022/09/04 07:51:10;;;;;;;;;;;13.80;82.00;;;;;;6106401;23;19916;-70
2022/09/04 07:53:45;;;;;;;;;;;13.80;82.00;;;;;;6101719;23;19943;-70
2022/09/04 07:56:12;;;;;;;;;;;13.80;82.70;;;;;;6101426;23;19912;-70
2022/09/04 07:58:53;;;;;;;;;;;13.70;82.80;;;;;;6126571;23;20343;-70
2022/09/04 08:01:22;;;;;;;;;;;13.70;83.10;;;;;;6126444;23;20244;-70
2022/09/04 08:04:01;;;;;;;;;;;13.70;83.10;;;;;;6126406;23;19940;-70
2022/09/04 08:06:51;;;;;;;;;;;13.70;83.40;;;;;;6126559;23;20280;-69
2022/09/04 08:09:36;;;;;;;;;;;13.70;83.50;;;;;;6109851;23;19931;-70
2022/09/04 08:12:03;;;;;;;;;;;13.70;83.90;;;;;;6124154;23;20256;-70
2022/09/04 08:14:31;;;;;;;;;;;13.70;83.40;;;;;;6124701;23;19905;-69
2022/09/04 08:17:23;;;;;;;;;;;13.70;84.90;;;;;;6124556;23;19905;-69
2022/09/04 08:19:54;;;;;;;;;;;13.60;86.40;;;;;;6124385;23;19912;-69
2022/09/04 08:22:27;;;;;;;;;;;13.40;88.60;;;;;;6098692;23;20000;-69
2022/09/04 08:25:09;;;;;;;;;;;13.30;89.40;;;;;;6100394;23;19905;-68
2022/09/04 08:27:38;;;;;;;;;;;13.30;90.10;;;;;;6126592;23;19956;-68
2022/09/04 08:30:09;;;;;;;;;;;13.20;90.50;;;;;;6127140;23;19913;-68
2022/09/04 08:32:38;;;;;;;;;;;13.20;90.90;;;;;;6100538;23;19933;-68
2022/09/04 08:35:11;;;;;;;;;;;13.20;90.80;;;;;;6126820;23;19905;-68
2022/09/04 08:37:41;;;;;;;;;;;13.10;90.80;;;;;;6126509;23;19941;-68
2022/09/04 08:40:17;;;;;;;;;;;13.00;90.70;;;;;;6127030;23;20277;-68
2022/09/04 22:09:04;;;;;;;;;;;11.60;83.40;;;;;;6120289;23;19936;-73
2022/09/04 22:11:51;;;;;;;;;;;11.70;83.40;;;;;;6094694;23;19949;-73
2022/09/04 22:14:27;;;;;;;;;;;11.80;83.40;;;;;;6045615;23;20321;-72
2022/09/04 22:17:14;;;;;;;;;;;11.80;83.20;;;;;;6069840;23;19905;-72
2022/09/04 22:19:41;;;;;;;;;;;11.90;83.20;;;;;;6093195;23;19980;-72
2022/09/04 22:22:25;;;;;;;;;;;12.00;82.90;;;;;;6095643;23;19912;-72
2022/09/04 22:25:10;;;;;;;;;;;12.00;82.80;;;;;;6095815;23;19984;-72
2022/09/04 22:27:52;;;;;;;;;;;12.00;82.70;;;;;;6095327;23;20203;-72
2022/09/04 22:30:19;;;;;;;;;;;12.10;83.00;;;;;;6070034;23;19945;-71
2022/09/04 22:32:45;;;;;;;;;;;12.20;83.00;;;;;;6070012;23;20348;-71
2022/09/04 22:35:30;;;;;;;;;;;12.20;82.70;;;;;;6095548;23;20218;-72
2022/09/04 22:38:02;;;;;;;;;;;12.20;82.00;;;;;;6095497;23;20380;-73
2022/09/04 22:40:32;;;;;;;;;;;12.30;81.40;;;;;;6096095;23;19910;-72
2022/09/04 22:43:15;;;;;;;;;;;12.50;80.40;;;;;;6096070;23;19909;-72
2022/09/04 22:45:58;;;;;;;;;;;12.60;79.80;;;;;;6070707;23;19905;-72
2022/09/04 22:48:24;;;;;;;;;;;12.70;79.80;;;;;;6096380;23;19906;-72
2022/09/04 22:50:55;;;;;;;;;;;12.80;78.90;;;;;;6096099;23;20273;-72
2022/09/04 22:53:31;;;;;;;;;;;13.00;78.10;;;;;;6070590;23;20328;-72
2022/09/04 22:55:58;;;;;;;;;;;13.00;77.20;;;;;;6070139;23;20363;-72
2022/09/04 22:58:34;;;;;;;;;;;13.20;75.70;;;;;;6096259;23;19917;-72
2022/09/04 23:01:03;;;;;;;;;;;13.30;77.00;;;;;;6096049;23;20344;-72
2022/09/04 23:03:51;;;;;;;;;;;13.30;75.60;;;;;;6095935;23;19906;-70
2022/09/04 23:06:36;;;;;;;;;;;13.50;77.30;;;;;;6070616;23;19913;-72
